Time,TemperatureF,DewpointF,PressureIn,WindDirection,WindDirectionDegrees,WindSpeedMPH,WindSpeedGustMPH,Humidity,HourlyPrecipIn,Conditions,Clouds,dailyrainin,SoftwareType,DateUTC
2013-06-28 00:05:00,49.5,45.7,30.18,SSW,202,0.0,0.0,87,0.00,,,-99.99,open3600,2013-06-27 22:05:00,
2013-06-28 00:20:00,49.3,45.5,30.18,SSW,202,0.0,0.0,87,0.00,,,-99.99,open3600,2013-06-27 22:20:00,
2013-06-28 00:36:00,49.1,45.7,30.18,SSW,202,0.0,0.0,88,0.00,,,-99.99,open3600,2013-06-27 22:36:00,
2013-06-28 00:52:00,49.1,45.7,30.18,SSW,202,0.0,0.0,88,0.00,,,-99.99,open3600,2013-06-27 22:52:00,
2013-06-28 01:09:00,48.9,45.5,30.17,SSW,202,0.0,0.0,88,0.00,,,-99.99,open3600,2013-06-27 23:09:00,
2013-06-28 01:24:00,48.7,45.3,30.17,SSW,202,0.0,0.0,88,0.00,,,-99.99,open3600,2013-06-27 23:24:00,
2013-06-28 01:40:00,48.4,45.0,30.17,SSW,202,0.0,0.0,88,0.00,,,-99.99,open3600,2013-06-27 23:40:00,
2013-06-28 01:55:00,48.4,45.0,30.17,SSW,202,0.0,0.0,88,0.00,,,-99.99,open3600,2013-06-27 23:55:00,
2013-06-28 02:13:00,48.0,44.6,30.16,SSW,202,0.0,0.0,88,0.00,,,-99.99,open3600,2013-06-28 00:13:00,
2013-06-28 02:29:00,47.8,44.4,30.16,SSW,202,0.0,0.0,88,0.00,,,-99.99,open3600,2013-06-28 00:29:00,
2013-06-28 02:44:00,47.1,43.7,30.16,SSW,202,0.0,0.0,88,0.00,,,-99.99,open3600,2013-06-28 00:44:00,
2013-06-28 03:00:00,46.9,43.5,30.16,SSW,202,0.0,0.0,88,0.00,,,-99.99,open3600,2013-06-28 01:00:00,
2013-06-28 03:32:00,46.0,42.6,30.15,SSW,202,0.0,0.0,88,0.00,,,-99.99,open3600,2013-06-28 01:32:00,
2013-06-28 04:05:00,45.3,41.9,30.15,SSW,202,0.0,0.0,88,0.00,,,-99.99,open3600,2013-06-28 02:05:00,
2013-06-28 04:38:00,44.4,41.2,30.14,SSW,202,0.0,0.0,88,0.00,,,-99.99,open3600,2013-06-28 02:38:00,
2013-06-28 05:29:00,43.7,40.6,30.14,SSW,202,0.0,0.0,89,0.00,,,-99.99,open3600,2013-06-28 03:29:00,
2013-06-28 05:44:00,43.3,40.3,30.15,SSW,202,0.0,0.0,89,0.00,,,-99.99,open3600,2013-06-28 03:44:00,
2013-06-28 06:16:00,43.9,40.8,30.15,SSW,202,0.0,0.0,89,0.00,,,-99.99,open3600,2013-06-28 04:16:00,
2013-06-28 06:32:00,44.8,41.7,30.15,SSW,202,0.0,0.0,89,0.00,,,-99.99,open3600,2013-06-28 04:32:00,
2013-06-28 06:47:00,45.1,42.1,30.14,SSW,202,0.0,0.0,89,0.00,,,-99.99,open3600,2013-06-28 04:47:00,
2013-06-28 07:03:00,45.7,42.6,30.14,SSW,202,0.0,0.0,89,0.00,,,-99.99,open3600,2013-06-28 05:03:00,
2013-06-28 07:19:00,46.2,43.5,30.14,SSW,202,0.0,0.0,90,0.00,,,-99.99,open3600,2013-06-28 05:19:00,
2013-06-28 07:36:00,47.5,44.8,30.14,SSW,202,0.0,0.0,90,0.00,,,-99.99,open3600,2013-06-28 05:36:00,
2013-06-28 07:52:00,48.0,45.3,30.14,SSW,202,0.0,0.0,90,0.00,,,-99.99,open3600,2013-06-28 05:52:00,
2013-06-28 08:09:00,48.4,45.5,30.14,SSW,202,0.0,0.0,90,0.00,,,-99.99,open3600,2013-06-28 06:09:00,
2013-06-28 08:25:00,49.6,46.8,30.14,SSW,202,0.0,0.0,90,0.00,,,-99.99,open3600,2013-06-28 06:25:00,
2013-06-28 08:40:00,50.9,48.0,30.14,SSW,202,0.0,0.0,90,0.00,,,-99.99,open3600,2013-06-28 06:40:00,
2013-06-28 08:56:00,52.3,49.3,30.14,SSW,202,0.0,0.0,89,0.00,,,-99.99,open3600,2013-06-28 06:56:00,
2013-06-28 09:12:00,53.1,49.8,30.14,SSW,202,0.0,0.0,89,0.00,,,-99.99,open3600,2013-06-28 07:12:00,
2013-06-28 09:27:00,53.2,49.1,30.15,WSW,248,0.0,0.0,86,0.00,,,-99.99,open3600,2013-06-28 07:27:00,
2013-06-28 09:43:00,54.0,49.3,30.14,WSW,248,0.0,0.0,84,0.00,,,-99.99,open3600,2013-06-28 07:43:00,
2013-06-28 09:58:00,54.7,49.6,30.14,SW,225,0.0,0.0,83,0.00,,,-99.99,open3600,2013-06-28 07:58:00,
2013-06-28 10:14:00,56.3,50.9,30.14,SSW,202,0.0,0.0,82,0.00,,,-99.99,open3600,2013-06-28 08:14:00,
2013-06-28 10:30:00,57.6,49.3,30.14,SE,135,0.0,0.0,74,0.00,,,-99.99,open3600,2013-06-28 08:30:00,
2013-06-28 10:47:00,58.5,50.2,30.14,SE,135,0.0,0.0,74,0.00,,,-99.99,open3600,2013-06-28 08:47:00,
2013-06-28 11:03:00,59.4,50.7,30.14,SSW,202,0.0,0.0,73,0.00,,,-99.99,open3600,2013-06-28 09:03:00,
2013-06-28 11:18:00,57.9,49.6,30.14,SW,225,0.0,0.0,74,0.00,,,-99.99,open3600,2013-06-28 09:18:00,
2013-06-28 11:34:00,57.0,48.4,30.13,West,270,0.0,0.0,73,0.00,,,-99.99,open3600,2013-06-28 09:34:00,
2013-06-28 11:49:00,57.6,48.9,30.14,West,270,0.0,0.0,73,0.00,,,-99.99,open3600,2013-06-28 09:49:00,
2013-06-28 12:05:00,58.6,49.6,30.13,South,180,0.4,0.0,72,0.00,,,-99.99,open3600,2013-06-28 10:05:00,
2013-06-28 12:21:00,59.4,47.7,30.13,SSW,202,1.2,0.0,65,0.00,,,-99.99,open3600,2013-06-28 10:21:00,
2013-06-28 12:36:00,59.9,48.2,30.13,SW,225,0.4,0.0,65,0.00,,,-99.99,open3600,2013-06-28 10:36:00,
2013-06-28 12:52:00,60.1,48.4,30.13,NW,315,0.1,0.0,65,0.00,,,-99.99,open3600,2013-06-28 10:52:00,
2013-06-28 13:07:00,60.8,46.8,30.12,SW,225,0.0,0.0,60,0.00,,,-99.99,open3600,2013-06-28 11:07:00,
2013-06-28 13:23:00,61.5,49.3,30.12,SSW,202,0.0,0.0,64,0.00,,,-99.99,open3600,2013-06-28 11:23:00,
2013-06-28 13:39:00,60.6,48.7,30.12,SE,135,0.0,0.0,65,0.00,,,-99.99,open3600,2013-06-28 11:39:00,
2013-06-28 13:54:00,60.1,48.4,30.12,WSW,248,0.0,0.0,65,0.00,,,-99.99,open3600,2013-06-28 11:54:00,
2013-06-28 14:10:00,59.9,48.6,30.12,WSW,248,0.0,0.0,66,0.00,,,-99.99,open3600,2013-06-28 12:10:00,
2013-06-28 14:25:00,61.3,49.8,30.11,SW,225,0.0,0.0,66,0.00,,,-99.99,open3600,2013-06-28 12:25:00,
2013-06-28 14:41:00,61.3,49.8,30.11,SSW,202,0.0,0.0,66,0.00,,,-99.99,open3600,2013-06-28 12:41:00,
2013-06-28 14:57:00,60.4,49.5,30.11,SSW,202,0.0,0.0,67,0.00,,,-99.99,open3600,2013-06-28 12:57:00,
2013-06-28 15:13:00,59.7,49.5,30.11,SW,225,0.2,0.0,69,0.00,,,-99.99,open3600,2013-06-28 13:13:00,
2013-06-28 15:29:00,59.5,49.5,30.11,WSW,248,0.2,-999.0,69,-99.99,,,-99.99,open3600,2013-06-28 13:29:00,
2013-06-28 15:45:00,59.5,50.2,30.11,WSW,248,0.0,-999.0,71,0.00,,,-99.99,open3600,2013-06-28 13:45:00,
2013-06-28 16:00:00,60.1,49.5,30.11,SW,225,0.0,0.0,68,0.00,,,-99.99,open3600,2013-06-28 14:00:00,
2013-06-28 16:33:00,60.6,49.6,30.10,South,180,0.0,0.0,67,0.00,,,-99.99,open3600,2013-06-28 14:33:00,
2013-06-28 16:49:00,60.6,48.7,30.10,SSW,202,0.0,0.0,65,0.00,,,-99.99,open3600,2013-06-28 14:49:00,
2013-06-28 17:04:00,60.8,47.7,30.10,SSW,202,0.0,0.0,62,0.00,,,-99.99,open3600,2013-06-28 15:04:00,
2013-06-28 17:20:00,61.0,48.4,30.09,SSW,202,0.0,0.0,63,0.00,,,-99.99,open3600,2013-06-28 15:20:00,
2013-06-28 17:36:00,61.9,49.6,30.09,WNW,292,0.2,0.0,64,0.00,,,-99.99,open3600,2013-06-28 15:36:00,
2013-06-28 17:51:00,61.3,49.8,30.09,West,270,0.0,0.0,66,0.00,,,-99.99,open3600,2013-06-28 15:51:00,
2013-06-28 18:07:00,61.0,49.6,30.09,WSW,248,0.0,0.0,66,0.00,,,-99.99,open3600,2013-06-28 16:07:00,
2013-06-28 18:23:00,60.6,50.0,30.09,SSW,202,0.0,0.0,68,0.00,,,-99.99,open3600,2013-06-28 16:23:00,
2013-06-28 18:38:00,60.4,49.8,30.09,SSW,202,0.0,0.0,68,0.00,,,-99.99,open3600,2013-06-28 16:38:00,
2013-06-28 18:54:00,60.3,50.4,30.09,South,180,0.0,0.0,70,0.00,,,-99.99,open3600,2013-06-28 16:54:00,
2013-06-28 19:10:00,59.5,50.5,30.09,South,180,0.0,0.0,72,0.00,,,-99.99,open3600,2013-06-28 17:10:00,
2013-06-28 19:25:00,59.2,50.9,30.09,South,180,0.0,0.0,74,0.00,,,-99.99,open3600,2013-06-28 17:25:00,
2013-06-28 19:41:00,59.0,51.1,30.10,South,180,0.0,0.0,75,0.00,,,-99.99,open3600,2013-06-28 17:41:00,
2013-06-28 19:57:00,59.0,51.8,30.10,South,180,0.0,0.0,77,0.00,,,-99.99,open3600,2013-06-28 17:57:00,
2013-06-28 20:12:00,58.6,51.8,30.10,South,180,0.0,0.0,78,0.00,,,-99.99,open3600,2013-06-28 18:12:00,
2013-06-28 20:28:00,58.1,51.6,30.10,South,180,0.0,0.0,79,0.00,,,-99.99,open3600,2013-06-28 18:28:00,
2013-06-28 20:43:00,57.7,51.3,30.10,South,180,0.0,0.0,79,0.00,,,-99.99,open3600,2013-06-28 18:43:00,
2013-06-28 20:59:00,57.6,51.1,30.10,South,180,0.0,0.0,79,0.00,,,-99.99,open3600,2013-06-28 18:59:00,
2013-06-28 21:15:00,57.4,51.3,30.11,South,180,0.0,0.0,80,0.00,,,-99.99,open3600,2013-06-28 19:15:00,
2013-06-28 21:30:00,56.8,50.7,30.11,South,180,0.0,0.0,80,0.00,,,-99.99,open3600,2013-06-28 19:30:00,
2013-06-28 22:03:00,55.6,49.8,30.11,South,180,0.0,0.0,81,0.00,,,-99.99,open3600,2013-06-28 20:03:00,
2013-06-28 22:19:00,55.0,49.6,30.11,South,180,0.0,0.0,82,0.00,,,-99.99,open3600,2013-06-28 20:19:00,
2013-06-28 22:34:00,54.5,49.5,30.11,South,180,0.0,0.0,83,0.00,,,-99.99,open3600,2013-06-28 20:34:00,
2013-06-28 22:50:00,54.0,48.9,30.11,South,180,0.0,0.0,83,0.00,,,-99.99,open3600,2013-06-28 20:50:00,
2013-06-28 23:05:00,52.9,48.2,30.11,South,180,0.0,0.0,84,0.00,,,-99.99,open3600,2013-06-28 21:05:00,
2013-06-28 23:22:00,52.2,47.8,30.12,South,180,0.0,0.0,85,0.00,,,-99.99,open3600,2013-06-28 21:22:00,
2013-06-28 23:37:00,51.6,47.7,30.12,South,180,0.0,0.0,86,0.00,,,-99.99,open3600,2013-06-28 21:37:00,
2013-06-28 23:53:00,51.4,47.5,30.12,West,270,0.0,0.0,86,0.00,,,-99.99,open3600,2013-06-28 21:53:00,